createdAt,value
2017-07-07T00:00:14.623Z,0
2017-07-07T00:00:34.909Z,0
2017-07-07T00:00:55.182Z,0
2017-07-07T00:01:15.471Z,0
2017-07-07T00:01:35.737Z,0
2017-07-07T00:01:56.045Z,0
2017-07-07T00:02:16.336Z,0
2017-07-07T00:02:36.614Z,0
2017-07-07T00:02:56.925Z,0
2017-07-07T00:03:17.192Z,0
2017-07-07T00:03:37.494Z,0
2017-07-07T00:03:57.811Z,0
2017-07-07T00:04:18.101Z,0
2017-07-07T00:04:38.442Z,0
2017-07-07T00:04:58.709Z,0
2017-07-07T00:05:19.055Z,0
2017-07-07T00:05:39.343Z,0
2017-07-07T00:05:59.613Z,0
2017-07-07T00:06:19.958Z,0
2017-07-07T00:06:40.323Z,0
2017-07-07T00:07:00.654Z,0
2017-07-07T00:07:21.107Z,0
2017-07-07T00:07:41.585Z,0
2017-07-07T00:08:02.233Z,0
2017-07-07T00:08:22.739Z,0
2017-07-07T00:08:43.289Z,0
2017-07-07T00:09:04.735Z,0
2017-07-07T00:09:25.030Z,0
2017-07-07T00:09:45.387Z,0
2017-07-07T00:10:05.949Z,0
2017-07-07T00:10:26.276Z,0
2017-07-07T00:10:46.681Z,0
2017-07-07T00:11:07.103Z,0
2017-07-07T00:11:28.212Z,0
2017-07-07T00:11:48.478Z,0
2017-07-07T00:12:08.773Z,0
2017-07-07T00:12:29.048Z,0
2017-07-07T00:12:49.368Z,0
2017-07-07T00:13:09.634Z,0
2017-07-07T00:13:29.965Z,0
2017-07-07T00:13:50.247Z,0
2017-07-07T00:14:10.658Z,0
2017-07-07T00:14:30.921Z,0
2017-07-07T00:14:51.222Z,0
2017-07-07T00:15:12.220Z,0
2017-07-07T00:15:32.542Z,0
2017-07-07T00:15:52.820Z,0
2017-07-07T00:16:13.096Z,0
2017-07-07T00:16:33.371Z,0
2017-07-07T00:16:53.708Z,0
2017-07-07T00:17:14.019Z,0
2017-07-07T00:17:34.365Z,0
2017-07-07T00:17:54.656Z,0
2017-07-07T00:18:14.931Z,0
2017-07-07T00:18:35.199Z,0
2017-07-07T00:18:55.484Z,0
2017-07-07T00:19:15.756Z,0
2017-07-07T00:19:36.022Z,0
2017-07-07T00:19:56.330Z,0
2017-07-07T00:20:16.611Z,0
2017-07-07T00:20:36.932Z,0
2017-07-07T00:20:57.265Z,0
2017-07-07T00:21:17.550Z,0
2017-07-07T00:21:37.827Z,0
2017-07-07T00:21:58.098Z,0
2017-07-07T00:22:18.353Z,0
2017-07-07T00:22:38.632Z,0
2017-07-07T00:22:58.934Z,0
2017-07-07T00:23:19.295Z,0
2017-07-07T00:23:39.560Z,0
2017-07-07T00:23:59.871Z,0
2017-07-07T00:24:20.148Z,0
2017-07-07T00:24:40.450Z,0
2017-07-07T00:25:00.744Z,0
2017-07-07T00:25:21.114Z,0
2017-07-07T00:25:41.418Z,0
2017-07-07T00:26:01.725Z,0
2017-07-07T00:26:22.045Z,0
2017-07-07T00:26:42.302Z,0
2017-07-07T00:27:02.570Z,0
2017-07-07T00:27:22.853Z,0
2017-07-07T00:27:43.208Z,0
2017-07-07T00:28:03.492Z,0
2017-07-07T00:28:23.815Z,0
2017-07-07T00:28:44.074Z,0
2017-07-07T00:29:04.338Z,0
2017-07-07T00:29:24.696Z,0
2017-07-07T00:29:45.015Z,0
2017-07-07T00:30:05.346Z,0
2017-07-07T00:30:25.616Z,0
2017-07-07T00:30:45.892Z,0
2017-07-07T00:31:06.241Z,0
2017-07-07T00:31:26.528Z,0
2017-07-07T00:31:46.860Z,0
2017-07-07T00:32:07.136Z,0
2017-07-07T00:32:27.462Z,0
2017-07-07T00:32:47.783Z,0
2017-07-07T00:33:08.050Z,0
2017-07-07T00:33:28.336Z,0
2017-07-07T00:33:48.603Z,0
2017-07-07T00:34:08.872Z,0
2017-07-07T00:34:29.160Z,0
2017-07-07T00:34:49.454Z,0
2017-07-07T00:35:09.733Z,0
2017-07-07T00:35:30.015Z,0
2017-07-07T00:35:50.311Z,0
2017-07-07T00:36:10.585Z,0
2017-07-07T00:36:30.853Z,0
2017-07-07T00:36:51.154Z,0
2017-07-07T00:37:11.417Z,0
2017-07-07T00:37:31.683Z,0
2017-07-07T00:37:52.000Z,0
2017-07-07T00:38:12.271Z,0
2017-07-07T00:38:32.537Z,0
2017-07-07T00:38:52.814Z,0
2017-07-07T00:39:13.089Z,0
2017-07-07T00:39:33.429Z,0
2017-07-07T00:39:53.719Z,0
2017-07-07T00:40:13.996Z,0
2017-07-07T00:40:34.267Z,0
2017-07-07T00:40:54.552Z,0
2017-07-07T00:41:14.834Z,0
2017-07-07T00:41:35.124Z,0
2017-07-07T00:41:55.449Z,0
2017-07-07T00:42:15.772Z,0
2017-07-07T00:42:36.088Z,0
2017-07-07T00:42:56.378Z,0
2017-07-07T00:43:16.659Z,0
2017-07-07T00:43:36.939Z,0
2017-07-07T00:43:57.209Z,0
2017-07-07T00:44:17.501Z,0
2017-07-07T00:44:37.817Z,0
2017-07-07T00:44:58.092Z,0
2017-07-07T00:45:18.363Z,0
2017-07-07T00:45:38.632Z,0
2017-07-07T00:45:58.975Z,0
2017-07-07T00:46:19.248Z,0
2017-07-07T00:46:39.527Z,0
2017-07-07T00:46:59.847Z,0
2017-07-07T00:47:20.139Z,0
2017-07-07T00:47:40.397Z,0
2017-07-07T00:48:00.664Z,0
2017-07-07T00:48:21.027Z,0
2017-07-07T00:48:41.303Z,0
2017-07-07T00:49:01.567Z,0
2017-07-07T00:49:21.842Z,0
2017-07-07T00:49:42.100Z,0
2017-07-07T00:50:02.360Z,0
2017-07-07T00:50:22.659Z,0
2017-07-07T00:50:42.931Z,0
2017-07-07T00:51:03.237Z,0
2017-07-07T00:51:23.502Z,0
2017-07-07T00:51:43.756Z,0
2017-07-07T00:52:04.019Z,0
2017-07-07T00:52:24.289Z,0
2017-07-07T00:52:44.553Z,0
2017-07-07T00:53:04.864Z,0
2017-07-07T00:53:25.184Z,0
2017-07-07T00:53:45.439Z,0
2017-07-07T00:54:05.710Z,0
2017-07-07T00:54:25.965Z,0
2017-07-07T00:54:46.275Z,0
2017-07-07T00:55:06.534Z,0
2017-07-07T00:55:26.883Z,0
2017-07-07T00:55:47.153Z,0
2017-07-07T00:56:07.408Z,0
2017-07-07T00:56:27.677Z,0
2017-07-07T00:56:48.007Z,0
2017-07-07T00:57:08.395Z,0
2017-07-07T00:57:28.672Z,0
2017-07-07T00:57:48.979Z,0
2017-07-07T00:58:09.324Z,0
2017-07-07T00:58:29.630Z,0
2017-07-07T00:58:49.902Z,0
2017-07-07T00:59:10.161Z,0
2017-07-07T00:59:30.419Z,0
2017-07-07T00:59:50.679Z,0
2017-07-07T01:00:10.949Z,0
2017-07-07T01:00:31.208Z,0
2017-07-07T01:00:51.525Z,0
2017-07-07T01:01:11.876Z,0
2017-07-07T01:01:32.200Z,0
2017-07-07T01:01:53.236Z,0
2017-07-07T01:02:13.505Z,0
2017-07-07T01:02:33.849Z,0
2017-07-07T01:02:54.119Z,0
2017-07-07T01:03:14.392Z,0
2017-07-07T01:03:34.642Z,0
2017-07-07T01:03:54.923Z,0
2017-07-07T01:04:15.242Z,0
2017-07-07T01:04:35.528Z,0
2017-07-07T01:04:55.848Z,0
2017-07-07T01:05:16.128Z,0
2017-07-07T01:05:36.397Z,0
2017-07-07T01:05:56.669Z,0
2017-07-07T01:06:16.943Z,0
2017-07-07T01:06:37.247Z,0
2017-07-07T01:06:57.521Z,0
2017-07-07T01:07:17.783Z,0
2017-07-07T01:07:38.050Z,0
2017-07-07T01:07:58.339Z,0
2017-07-07T01:08:18.794Z,0
2017-07-07T01:08:39.067Z,0
2017-07-07T01:08:59.386Z,0
2017-07-07T01:09:19.657Z,0
2017-07-07T01:09:39.930Z,0
2017-07-07T01:10:00.202Z,0
2017-07-07T01:10:20.560Z,0
2017-07-07T01:10:40.825Z,0
2017-07-07T01:11:01.128Z,0
2017-07-07T01:11:21.473Z,0
2017-07-07T01:11:41.867Z,0
2017-07-07T01:12:02.190Z,0
2017-07-07T01:12:22.444Z,0
2017-07-07T01:12:42.765Z,0
2017-07-07T01:13:03.052Z,0
2017-07-07T01:13:23.319Z,0
2017-07-07T01:13:43.603Z,0
2017-07-07T01:14:03.900Z,0
2017-07-07T01:14:24.165Z,0
2017-07-07T01:14:44.441Z,0
2017-07-07T01:15:04.744Z,0
2017-07-07T01:15:25.023Z,0
2017-07-07T01:15:45.336Z,0
2017-07-07T01:16:05.625Z,0
2017-07-07T01:16:25.941Z,0
2017-07-07T01:16:46.469Z,0
2017-07-07T01:17:06.741Z,0
2017-07-07T01:17:27.043Z,0
2017-07-07T01:17:47.367Z,0
2017-07-07T01:18:07.695Z,0
2017-07-07T01:18:28.008Z,0
2017-07-07T01:18:48.257Z,0
2017-07-07T01:19:08.561Z,0
2017-07-07T01:19:28.850Z,0
2017-07-07T01:19:49.110Z,0
2017-07-07T01:20:09.407Z,0
2017-07-07T01:20:29.717Z,0
2017-07-07T01:20:50.100Z,0
2017-07-07T01:21:10.411Z,0
2017-07-07T01:21:30.677Z,0
2017-07-07T01:21:51.023Z,0
2017-07-07T01:22:11.355Z,0
2017-07-07T01:22:31.671Z,0
2017-07-07T01:22:51.978Z,0
2017-07-07T01:23:12.279Z,0
2017-07-07T01:23:32.535Z,0
2017-07-07T01:23:52.800Z,0
2017-07-07T01:24:13.119Z,0
2017-07-07T01:24:33.422Z,0
2017-07-07T01:24:53.675Z,0
2017-07-07T01:25:13.995Z,0
2017-07-07T01:25:34.289Z,0
2017-07-07T01:25:54.588Z,0
2017-07-07T01:26:14.866Z,0
2017-07-07T01:26:35.198Z,0
2017-07-07T01:26:55.461Z,0
2017-07-07T01:27:15.816Z,0
2017-07-07T01:27:36.186Z,0
2017-07-07T01:27:56.508Z,0
2017-07-07T01:28:16.783Z,0
2017-07-07T01:28:37.090Z,0
2017-07-07T01:28:57.371Z,0
2017-07-07T01:29:17.642Z,0
2017-07-07T01:29:37.985Z,0
2017-07-07T01:29:58.273Z,0
2017-07-07T01:30:18.560Z,0
2017-07-07T01:30:38.837Z,0
2017-07-07T01:30:59.107Z,0
2017-07-07T01:31:19.411Z,0
2017-07-07T01:31:39.723Z,0
2017-07-07T01:31:59.983Z,0
2017-07-07T01:32:20.269Z,0
2017-07-07T01:32:40.585Z,0
2017-07-07T01:33:00.884Z,0
2017-07-07T01:33:21.156Z,0
2017-07-07T01:33:41.423Z,0
2017-07-07T01:34:01.687Z,0
2017-07-07T01:34:21.973Z,0
2017-07-07T01:34:42.253Z,0
2017-07-07T01:35:02.595Z,0
2017-07-07T01:35:22.948Z,0
2017-07-07T01:35:43.234Z,0
2017-07-07T01:36:03.514Z,0
2017-07-07T01:36:23.811Z,0
2017-07-07T01:36:44.125Z,0
2017-07-07T01:37:04.486Z,0
2017-07-07T01:37:24.767Z,0
2017-07-07T01:37:45.060Z,0
2017-07-07T01:38:05.363Z,0
2017-07-07T01:38:25.634Z,0
2017-07-07T01:38:45.943Z,0
2017-07-07T01:39:06.216Z,0
2017-07-07T01:39:26.505Z,0
2017-07-07T01:39:46.775Z,0
2017-07-07T01:40:07.027Z,0
2017-07-07T01:40:27.320Z,0
2017-07-07T01:40:47.606Z,0
2017-07-07T01:41:07.861Z,0
2017-07-07T01:41:28.124Z,0
2017-07-07T01:41:48.454Z,0
2017-07-07T01:42:08.772Z,0
2017-07-07T01:42:29.039Z,0
2017-07-07T01:42:49.327Z,0
2017-07-07T01:43:09.592Z,0
2017-07-07T01:43:29.895Z,0
2017-07-07T01:43:50.186Z,0
2017-07-07T01:44:10.487Z,0
2017-07-07T01:44:30.800Z,0
2017-07-07T01:44:51.074Z,0
2017-07-07T01:45:11.420Z,0
2017-07-07T01:45:31.749Z,0
2017-07-07T01:45:52.014Z,0
2017-07-07T01:46:12.291Z,0
2017-07-07T01:46:32.601Z,0
2017-07-07T01:46:52.858Z,0
2017-07-07T01:47:13.130Z,0
2017-07-07T01:47:33.445Z,0
2017-07-07T01:47:54.328Z,0
2017-07-07T01:48:14.591Z,0
2017-07-07T01:48:34.906Z,0
2017-07-07T01:48:55.160Z,0
2017-07-07T01:49:15.429Z,0
2017-07-07T01:49:35.684Z,0
2017-07-07T01:49:56.007Z,0
2017-07-07T01:50:16.321Z,0
2017-07-07T01:50:36.622Z,0
2017-07-07T01:50:56.895Z,0
2017-07-07T01:51:17.167Z,0
2017-07-07T01:51:37.436Z,0
2017-07-07T01:51:57.691Z,0
2017-07-07T01:52:17.957Z,0
2017-07-07T01:52:38.281Z,0
2017-07-07T01:52:58.536Z,0
2017-07-07T01:53:18.852Z,0
2017-07-07T01:53:39.113Z,0
2017-07-07T01:53:59.370Z,0
2017-07-07T01:54:19.625Z,0
2017-07-07T01:54:39.901Z,0
2017-07-07T01:55:00.175Z,0
2017-07-07T01:55:20.447Z,0
2017-07-07T01:55:40.714Z,0
2017-07-07T01:56:01.030Z,0
2017-07-07T01:56:21.296Z,0
2017-07-07T01:56:41.629Z,0
2017-07-07T01:57:01.892Z,0
2017-07-07T01:57:22.152Z,0
2017-07-07T01:57:42.462Z,0
2017-07-07T01:58:02.803Z,0
2017-07-07T01:58:23.061Z,0
2017-07-07T01:58:43.318Z,0
2017-07-07T01:59:03.573Z,0
2017-07-07T01:59:23.826Z,0
2017-07-07T01:59:44.127Z,0
2017-07-07T02:00:04.390Z,0
2017-07-07T02:00:24.720Z,0
2017-07-07T02:00:44.976Z,0
2017-07-07T02:01:05.249Z,0
2017-07-07T02:01:25.530Z,0
2017-07-07T02:01:45.868Z,0
2017-07-07T02:02:06.182Z,0
2017-07-07T02:02:26.447Z,0
2017-07-07T02:02:46.711Z,0
2017-07-07T02:03:07.011Z,0
2017-07-07T02:03:27.281Z,0
2017-07-07T02:03:47.616Z,0
2017-07-07T02:04:07.939Z,0
2017-07-07T02:04:28.259Z,0
2017-07-07T02:04:48.579Z,0
2017-07-07T02:05:08.841Z,0
2017-07-07T02:05:29.131Z,0
2017-07-07T02:05:49.404Z,0
2017-07-07T02:06:09.682Z,0
2017-07-07T02:06:30.001Z,0
2017-07-07T02:06:50.276Z,0
2017-07-07T02:07:10.533Z,0
2017-07-07T02:07:30.864Z,0
2017-07-07T02:07:51.184Z,0
2017-07-07T02:08:11.474Z,0
2017-07-07T02:08:31.736Z,0
2017-07-07T02:08:52.046Z,0
2017-07-07T02:09:12.350Z,0
2017-07-07T02:09:32.658Z,0
2017-07-07T02:09:52.925Z,0
2017-07-07T02:10:13.196Z,0
2017-07-07T02:10:33.473Z,0
2017-07-07T02:10:53.741Z,0
2017-07-07T02:11:14.023Z,0
2017-07-07T02:11:34.378Z,0
2017-07-07T02:11:54.651Z,0
2017-07-07T02:12:14.930Z,0
2017-07-07T02:12:35.225Z,0
2017-07-07T02:12:55.488Z,0
2017-07-07T02:13:15.765Z,0
2017-07-07T02:13:36.034Z,0
2017-07-07T02:13:56.300Z,0
2017-07-07T02:14:16.572Z,0
2017-07-07T02:14:36.839Z,0
2017-07-07T02:14:57.103Z,0
2017-07-07T02:15:17.387Z,0
2017-07-07T02:15:37.647Z,0
2017-07-07T02:15:57.891Z,0
2017-07-07T02:16:18.157Z,0
2017-07-07T02:16:38.462Z,0
2017-07-07T02:16:59.337Z,0
2017-07-07T02:17:19.591Z,0
2017-07-07T02:17:39.889Z,0
2017-07-07T02:18:00.226Z,0
2017-07-07T02:18:20.491Z,0
2017-07-07T02:18:40.757Z,0
2017-07-07T02:19:01.108Z,0
2017-07-07T02:19:21.369Z,0
2017-07-07T02:19:41.678Z,0
2017-07-07T02:20:01.946Z,0
2017-07-07T02:20:22.235Z,0
2017-07-07T02:20:42.525Z,0
2017-07-07T02:21:02.810Z,0
2017-07-07T02:21:23.169Z,0
2017-07-07T02:21:43.468Z,0
2017-07-07T02:22:03.739Z,0
2017-07-07T02:22:24.045Z,0
2017-07-07T02:22:44.427Z,0
2017-07-07T02:23:04.708Z,0
2017-07-07T02:23:24.982Z,0
2017-07-07T02:23:45.260Z,0
2017-07-07T02:24:05.533Z,0
2017-07-07T02:24:25.810Z,0
2017-07-07T02:24:46.073Z,0
2017-07-07T02:25:06.350Z,0
2017-07-07T02:25:26.616Z,0
2017-07-07T02:25:46.884Z,0
2017-07-07T02:26:07.139Z,0
2017-07-07T02:26:27.401Z,0
2017-07-07T02:26:47.653Z,0
2017-07-07T02:27:07.929Z,0
2017-07-07T02:27:28.199Z,0
2017-07-07T02:27:48.449Z,0
2017-07-07T02:28:08.760Z,0
2017-07-07T02:28:29.022Z,0
2017-07-07T02:28:49.302Z,0
2017-07-07T02:29:09.570Z,0
2017-07-07T02:29:29.866Z,0
2017-07-07T02:29:50.131Z,0
2017-07-07T02:30:10.444Z,0
2017-07-07T02:30:30.737Z,0
2017-07-07T02:30:51.053Z,0
2017-07-07T02:31:11.351Z,0
2017-07-07T02:31:31.613Z,0
2017-07-07T02:31:51.920Z,0
2017-07-07T02:32:12.203Z,0
2017-07-07T02:32:32.473Z,4
2017-07-07T02:32:52.792Z,4
2017-07-07T02:33:13.083Z,4
2017-07-07T02:33:33.406Z,4
2017-07-07T02:33:53.752Z,4
2017-07-07T02:34:14.019Z,4
2017-07-07T02:34:34.300Z,0
2017-07-07T02:34:54.632Z,0
2017-07-07T02:35:14.890Z,0
2017-07-07T02:35:35.228Z,0
2017-07-07T02:35:55.546Z,4
2017-07-07T02:36:15.854Z,4
2017-07-07T02:36:36.178Z,4
2017-07-07T02:36:56.445Z,4
2017-07-07T02:37:16.718Z,0
2017-07-07T02:37:36.990Z,4
2017-07-07T02:37:57.334Z,4
2017-07-07T02:38:17.634Z,4
2017-07-07T02:38:37.909Z,4
2017-07-07T02:38:58.179Z,4
2017-07-07T02:39:18.541Z,4
2017-07-07T02:39:38.873Z,8
2017-07-07T02:39:59.243Z,4
2017-07-07T02:40:19.507Z,4
2017-07-07T02:40:39.847Z,8
2017-07-07T02:41:00.173Z,8
2017-07-07T02:41:20.489Z,8
2017-07-07T02:41:40.780Z,8
2017-07-07T02:42:01.047Z,8
2017-07-07T02:42:21.317Z,8
2017-07-07T02:42:41.585Z,12
2017-07-07T02:43:01.909Z,12
2017-07-07T02:43:22.171Z,12
2017-07-07T02:43:42.475Z,12
2017-07-07T02:44:02.791Z,16
2017-07-07T02:44:23.065Z,12
2017-07-07T02:44:43.378Z,16
2017-07-07T02:45:03.655Z,16
2017-07-07T02:45:23.928Z,20
2017-07-07T02:45:44.191Z,20
2017-07-07T02:46:04.498Z,20
2017-07-07T02:46:24.925Z,20
2017-07-07T02:46:45.231Z,20
2017-07-07T02:47:05.526Z,24
2017-07-07T02:47:25.901Z,24
2017-07-07T02:47:46.253Z,24
2017-07-07T02:48:06.526Z,28
2017-07-07T02:48:26.842Z,28
2017-07-07T02:48:47.198Z,32
2017-07-07T02:49:07.474Z,32
2017-07-07T02:49:27.782Z,32
2017-07-07T02:49:48.065Z,32
2017-07-07T02:50:08.481Z,32
2017-07-07T02:50:28.729Z,32
2017-07-07T02:50:48.989Z,36
2017-07-07T02:51:09.331Z,36
2017-07-07T02:51:29.618Z,40
2017-07-07T02:51:49.975Z,44
2017-07-07T02:52:10.247Z,40
2017-07-07T02:52:30.508Z,44
2017-07-07T02:52:50.834Z,44
2017-07-07T02:53:11.096Z,48
2017-07-07T02:53:31.400Z,52
2017-07-07T02:53:51.680Z,52
2017-07-07T02:54:11.945Z,56
2017-07-07T02:54:32.285Z,60
2017-07-07T02:54:52.559Z,60
2017-07-07T02:55:12.885Z,60
2017-07-07T02:55:33.096Z,64
2017-07-07T02:55:53.356Z,68
2017-07-07T02:56:13.710Z,72
2017-07-07T02:56:34.037Z,72
2017-07-07T02:56:54.317Z,80
2017-07-07T02:57:14.590Z,80
2017-07-07T02:57:34.844Z,84
2017-07-07T02:57:55.139Z,88
2017-07-07T02:58:15.442Z,92
2017-07-07T02:58:35.716Z,92
2017-07-07T02:58:55.988Z,96
2017-07-07T02:59:16.273Z,100
2017-07-07T02:59:36.543Z,104
2017-07-07T02:59:56.867Z,108
2017-07-07T03:00:17.220Z,116
2017-07-07T03:00:37.491Z,120
2017-07-07T03:00:57.766Z,120
2017-07-07T03:01:18.073Z,128
2017-07-07T03:01:38.329Z,132
2017-07-07T03:01:58.584Z,136
2017-07-07T03:02:18.935Z,140
2017-07-07T03:02:39.211Z,148
2017-07-07T03:02:59.524Z,148
2017-07-07T03:03:19.792Z,152
2017-07-07T03:03:40.112Z,160
2017-07-07T03:04:00.386Z,160
2017-07-07T03:04:20.655Z,164
2017-07-07T03:04:40.927Z,164
2017-07-07T03:05:01.240Z,172
2017-07-07T03:05:21.501Z,172
2017-07-07T03:05:41.858Z,176
2017-07-07T03:06:02.111Z,188
2017-07-07T03:06:22.472Z,188
2017-07-07T03:06:42.733Z,196
2017-07-07T03:07:03.037Z,200
2017-07-07T03:07:23.342Z,204
2017-07-07T03:07:43.624Z,212
2017-07-07T03:08:03.901Z,216
2017-07-07T03:08:24.208Z,224
2017-07-07T03:08:44.512Z,228
2017-07-07T03:09:04.819Z,232
2017-07-07T03:09:25.128Z,240
2017-07-07T03:09:45.433Z,244
2017-07-07T03:10:05.743Z,252
2017-07-07T03:10:26.024Z,256
2017-07-07T03:10:46.296Z,268
2017-07-07T03:11:06.557Z,272
2017-07-07T03:11:26.841Z,280
2017-07-07T03:11:47.094Z,288
2017-07-07T03:12:07.430Z,292
2017-07-07T03:12:27.689Z,300
2017-07-07T03:12:47.991Z,304
2017-07-07T03:13:08.302Z,312
2017-07-07T03:13:28.570Z,320
2017-07-07T03:13:48.826Z,328
2017-07-07T03:14:09.101Z,332
2017-07-07T03:14:29.397Z,344
2017-07-07T03:14:49.741Z,352
2017-07-07T03:15:10.005Z,360
2017-07-07T03:15:30.289Z,372
2017-07-07T03:15:50.556Z,380
2017-07-07T03:16:10.845Z,388
2017-07-07T03:16:31.101Z,396
2017-07-07T03:16:51.354Z,404
2017-07-07T03:17:11.618Z,420
2017-07-07T03:17:31.887Z,428
2017-07-07T03:17:52.224Z,440
2017-07-07T03:18:12.560Z,452
2017-07-07T03:18:32.817Z,464
2017-07-07T03:18:53.080Z,476
2017-07-07T03:19:13.383Z,492
2017-07-07T03:19:33.714Z,504
2017-07-07T03:19:53.990Z,516
2017-07-07T03:20:14.265Z,528
2017-07-07T03:20:34.586Z,540
2017-07-07T03:20:54.873Z,552
2017-07-07T03:21:15.156Z,564
2017-07-07T03:23:44.192Z,628
2017-07-07T03:24:05.390Z,632
2017-07-07T03:24:25.771Z,640
2017-07-07T03:24:46.078Z,644
2017-07-07T03:25:06.332Z,652
2017-07-07T03:25:26.685Z,656
2017-07-07T03:25:47.032Z,664
2017-07-07T03:26:07.340Z,672
2017-07-07T03:26:27.684Z,676
2017-07-07T03:26:47.940Z,680
2017-07-07T03:27:08.249Z,680
2017-07-07T03:27:28.518Z,684
2017-07-07T03:27:48.809Z,692
2017-07-07T03:28:09.090Z,692
2017-07-07T03:28:29.456Z,696
2017-07-07T03:28:49.749Z,700
2017-07-07T03:29:10.089Z,704
2017-07-07T03:29:30.362Z,708
2017-07-07T03:29:50.645Z,708
2017-07-07T03:30:10.962Z,708
2017-07-07T03:30:31.263Z,712
2017-07-07T03:30:51.544Z,712
2017-07-07T03:31:11.809Z,712
2017-07-07T03:31:32.072Z,716
2017-07-07T03:31:52.350Z,716
2017-07-07T03:32:12.677Z,716
2017-07-07T03:32:32.933Z,716
2017-07-07T03:32:53.194Z,720
2017-07-07T03:33:13.506Z,724
2017-07-07T03:33:33.776Z,732
2017-07-07T03:33:54.065Z,736
2017-07-07T03:34:14.328Z,740
2017-07-07T03:34:34.597Z,748
2017-07-07T03:34:54.876Z,748
2017-07-07T03:35:15.149Z,756
2017-07-07T03:35:35.413Z,760
2017-07-07T03:35:55.718Z,760
2017-07-07T03:36:16.029Z,768
2017-07-07T03:36:36.345Z,772
2017-07-07T03:36:56.623Z,772
2017-07-07T03:37:16.894Z,780
2017-07-07T03:37:37.207Z,784
2017-07-07T03:37:57.564Z,792
2017-07-07T03:38:17.830Z,796
2017-07-07T03:38:38.101Z,800
2017-07-07T03:38:58.364Z,804
2017-07-07T03:39:18.627Z,808
2017-07-07T03:39:38.899Z,812
2017-07-07T03:39:59.165Z,812
2017-07-07T03:40:19.421Z,812
2017-07-07T03:40:39.701Z,816
2017-07-07T03:41:00.010Z,816
2017-07-07T03:41:20.292Z,816
2017-07-07T03:41:40.598Z,816
2017-07-07T03:42:00.888Z,812
2017-07-07T03:42:21.147Z,816
2017-07-07T03:42:41.423Z,824
2017-07-07T03:43:01.683Z,832
2017-07-07T03:43:22.111Z,832
2017-07-07T03:43:42.371Z,836
2017-07-07T03:44:02.642Z,836
2017-07-07T03:44:22.954Z,836
2017-07-07T03:44:43.286Z,840
2017-07-07T03:45:03.311Z,840
2017-07-07T03:45:23.580Z,844
2017-07-07T03:45:43.897Z,852
2017-07-07T03:46:04.206Z,856
2017-07-07T03:46:24.530Z,868
2017-07-07T03:46:44.801Z,872
2017-07-07T03:47:05.116Z,884
2017-07-07T03:47:25.385Z,888
2017-07-07T03:47:45.693Z,892
2017-07-07T03:48:05.952Z,900
2017-07-07T03:48:26.213Z,908
2017-07-07T03:48:46.484Z,916
2017-07-07T03:49:06.824Z,924
2017-07-07T03:49:27.089Z,932
2017-07-07T03:49:47.363Z,940
2017-07-07T03:50:07.674Z,948
2017-07-07T03:50:27.959Z,952
2017-07-07T03:50:48.219Z,964
2017-07-07T03:51:08.496Z,972
2017-07-07T03:51:28.831Z,976
2017-07-07T03:51:49.148Z,984
2017-07-07T03:52:09.431Z,996
2017-07-07T03:52:29.783Z,1004
2017-07-07T03:52:50.063Z,1016
2017-07-07T03:53:10.420Z,1032
2017-07-07T03:53:30.785Z,1044
2017-07-07T03:53:51.055Z,1052
2017-07-07T03:54:11.323Z,1072
2017-07-07T03:54:31.660Z,1100
2017-07-07T03:54:51.939Z,1132
2017-07-07T03:55:12.211Z,1164
2017-07-07T03:55:32.523Z,1192
2017-07-07T03:55:52.796Z,1240
2017-07-07T03:56:13.075Z,1292
2017-07-07T03:56:33.352Z,1344
2017-07-07T03:56:53.615Z,1396
2017-07-07T03:57:14.412Z,1448
2017-07-07T03:57:34.718Z,1488
2017-07-07T03:57:55.073Z,1528
2017-07-07T03:58:15.353Z,1560
2017-07-07T03:58:35.621Z,1596
2017-07-07T03:58:55.900Z,1640
2017-07-07T03:59:16.205Z,1692
2017-07-07T03:59:36.486Z,1744
2017-07-07T03:59:56.758Z,1784
2017-07-07T04:00:17.023Z,1820
2017-07-07T04:00:37.296Z,1848
2017-07-07T04:00:57.563Z,1888
2017-07-07T04:01:17.840Z,1920
2017-07-07T04:01:38.151Z,1944
2017-07-07T04:01:58.459Z,1968
2017-07-07T04:02:18.720Z,1996
2017-07-07T04:02:38.986Z,2036
2017-07-07T04:02:59.285Z,2084
2017-07-07T04:03:19.560Z,2136
2017-07-07T04:03:39.827Z,2204
2017-07-07T04:04:00.155Z,2260
2017-07-07T04:04:20.536Z,2304
2017-07-07T04:04:40.832Z,2368
2017-07-07T04:05:01.124Z,2424
2017-07-07T04:05:21.386Z,2468
2017-07-07T04:05:41.758Z,2504
2017-07-07T04:06:02.008Z,2532
2017-07-07T04:06:22.286Z,2556
2017-07-07T04:06:42.571Z,2584
2017-07-07T04:07:02.871Z,2592
2017-07-07T04:07:23.189Z,2604
2017-07-07T04:07:43.459Z,2612
2017-07-07T04:08:03.719Z,2608
2017-07-07T04:08:24.002Z,2604
2017-07-07T04:08:44.264Z,2596
2017-07-07T04:09:04.545Z,2596
2017-07-07T04:09:24.865Z,2592
2017-07-07T04:09:45.181Z,2604
2017-07-07T04:10:05.448Z,2632
2017-07-07T04:10:25.714Z,2664
2017-07-07T04:10:45.966Z,2688
2017-07-07T04:11:06.262Z,2708
2017-07-07T04:11:26.580Z,2720
2017-07-07T04:11:46.851Z,2744
2017-07-07T04:12:07.120Z,2780
2017-07-07T04:12:27.445Z,2812
2017-07-07T04:12:47.721Z,2840
2017-07-07T04:13:07.994Z,2860
2017-07-07T04:13:28.281Z,2852
2017-07-07T04:13:48.572Z,2864
2017-07-07T04:14:08.845Z,2864
2017-07-07T04:14:29.111Z,2856
2017-07-07T04:14:49.463Z,2848
2017-07-07T04:15:09.802Z,2836
2017-07-07T04:15:30.068Z,2816
2017-07-07T04:15:50.325Z,2792
2017-07-07T04:16:10.654Z,2772
2017-07-07T04:16:30.961Z,2740
2017-07-07T04:16:51.296Z,2716
2017-07-07T04:17:11.642Z,2704
2017-07-07T04:17:32.011Z,2696
2017-07-07T04:17:52.355Z,2684
2017-07-07T04:18:12.624Z,2656
2017-07-07T04:18:32.943Z,2624
2017-07-07T04:18:53.201Z,2604
2017-07-07T04:19:13.508Z,2576
2017-07-07T04:19:33.856Z,2552
2017-07-07T04:19:54.136Z,2520
2017-07-07T04:20:14.399Z,2492
2017-07-07T04:20:34.654Z,2448
2017-07-07T04:20:54.971Z,2400
2017-07-07T04:21:15.232Z,2352
2017-07-07T04:21:35.581Z,2304
2017-07-07T04:21:55.849Z,2256
2017-07-07T04:22:16.157Z,2208
2017-07-07T04:22:36.431Z,2160
2017-07-07T04:22:56.807Z,2104
2017-07-07T04:23:17.127Z,2056
2017-07-07T04:23:37.386Z,2016
2017-07-07T04:23:57.722Z,1976
2017-07-07T04:24:17.999Z,1932
2017-07-07T04:24:38.293Z,1900
2017-07-07T04:24:58.251Z,1864
2017-07-07T04:25:18.558Z,1828
2017-07-07T04:25:38.826Z,1788
2017-07-07T04:25:59.080Z,1748
2017-07-07T04:26:19.340Z,1712
2017-07-07T04:26:39.652Z,1676
2017-07-07T04:26:59.964Z,1636
2017-07-07T04:27:20.297Z,1592
2017-07-07T04:27:40.589Z,1552
2017-07-07T04:28:00.874Z,1524
2017-07-07T04:28:21.168Z,1504
2017-07-07T04:28:41.420Z,1480
2017-07-07T04:29:01.689Z,1460
2017-07-07T04:29:22.040Z,1440
2017-07-07T04:29:42.318Z,1420
2017-07-07T04:30:02.581Z,1396
2017-07-07T04:30:22.844Z,1396
2017-07-07T04:30:43.130Z,1416
2017-07-07T04:31:03.449Z,1440
2017-07-07T04:31:23.726Z,1464
2017-07-07T04:31:44.017Z,1504
2017-07-07T04:32:04.304Z,1560
2017-07-07T04:32:24.677Z,1616
2017-07-07T04:32:44.959Z,1672
2017-07-07T04:33:05.291Z,1740
2017-07-07T04:33:25.573Z,1804
2017-07-07T04:33:45.827Z,1868
2017-07-07T04:34:06.095Z,1932
2017-07-07T04:34:26.450Z,2000
2017-07-07T04:34:46.726Z,2076
2017-07-07T04:35:07.001Z,2144
2017-07-07T04:35:27.261Z,2204
2017-07-07T04:35:47.529Z,2280
2017-07-07T04:36:07.829Z,2356
2017-07-07T04:36:28.149Z,2424
2017-07-07T04:36:48.445Z,2504
2017-07-07T04:37:08.738Z,2596
2017-07-07T04:37:28.999Z,2664
2017-07-07T04:37:49.305Z,2700
2017-07-07T04:38:09.624Z,2740
2017-07-07T04:38:29.881Z,2772
2017-07-07T04:38:50.169Z,2764
2017-07-07T04:39:10.475Z,2724
2017-07-07T04:39:30.752Z,2684
2017-07-07T04:39:51.010Z,2632
2017-07-07T04:40:11.341Z,2596
2017-07-07T04:40:31.672Z,2544
2017-07-07T04:40:51.932Z,2464
2017-07-07T04:41:12.246Z,2408
2017-07-07T04:41:32.534Z,2372
2017-07-07T04:41:52.883Z,2324
2017-07-07T04:42:13.187Z,2304
2017-07-07T04:42:33.498Z,2304
2017-07-07T04:42:53.824Z,2312
2017-07-07T04:43:14.184Z,2320
2017-07-07T04:43:34.447Z,2316
2017-07-07T04:43:54.751Z,2316
2017-07-07T04:44:15.062Z,2328
2017-07-07T04:44:35.381Z,2360
2017-07-07T04:44:55.767Z,2376
2017-07-07T04:45:16.044Z,2388
2017-07-07T04:45:36.307Z,2388
2017-07-07T04:45:56.590Z,2376
2017-07-07T04:46:16.857Z,2352
2017-07-07T04:46:37.151Z,2352
2017-07-07T04:46:57.486Z,2364
2017-07-07T04:47:17.754Z,2368
2017-07-07T04:47:38.074Z,2360
2017-07-07T04:47:58.403Z,2336
2017-07-07T04:48:18.729Z,2332
2017-07-07T04:48:39.013Z,2312
2017-07-07T04:48:59.278Z,2312
2017-07-07T04:49:19.543Z,2280
2017-07-07T04:49:39.832Z,2276
2017-07-07T04:50:00.106Z,2276
2017-07-07T04:50:20.379Z,2292
2017-07-07T04:50:40.649Z,2300
2017-07-07T04:51:00.912Z,2328
2017-07-07T04:51:21.233Z,2348